Terminal Aerodrome Forecast
Issued by NWS

Home | Current Version | Previous Version | Text Only | Print | Product List | Glossary On
Versions: 1 2 3 4 5 6 7 8 9 10 11 12 13 14 15 16 17 18
000
FTUS43 KIND 230500
TAFLAF
TAF
KLAF 230520Z 2306/2406 00000KT P6SM SKC
      TEMPO 2308/2312 3SM BR
     FM231500 11005KT P6SM SKC
     FM240000 00000KT P6SM SKC
      AMD LTD TO CLD VIS AND WIND TIL 231300=

USA.gov is the U.S. government's official web portal to all federal, state and local government web resources and services.